sensor_id;sensor_type;location;lat;lon;timestamp;P1;durP1;ratioP1;P2;durP2;ratioP2
13795;SDS011;40911;51.552;9.874;2022-09-23T00:01:37;3.38;;;2.90;;
13795;SDS011;40911;51.552;9.874;2022-09-23T00:03:59;3.20;;;2.90;;
13795;SDS011;40911;51.552;9.874;2022-09-23T00:06:21;5.22;;;3.40;;
13795;SDS011;40911;51.552;9.874;2022-09-23T00:08:44;3.55;;;3.22;;
13795;SDS011;40911;51.552;9.874;2022-09-23T00:11:06;4.20;;;3.53;;
13795;SDS011;40911;51.552;9.874;2022-09-23T00:13:30;4.05;;;2.90;;
13795;SDS011;40911;51.552;9.874;2022-09-23T00:18:14;3.30;;;3.00;;
13795;SDS011;40911;51.552;9.874;2022-09-23T00:20:37;3.83;;;3.35;;
13795;SDS011;40911;51.552;9.874;2022-09-23T00:22:59;3.38;;;3.03;;
13795;SDS011;40911;51.552;9.874;2022-09-23T00:25:21;2.97;;;2.70;;
13795;SDS011;40911;51.552;9.874;2022-09-23T00:27:43;3.30;;;3.00;;
13795;SDS011;40911;51.552;9.874;2022-09-23T00:30:06;4.32;;;2.90;;
13795;SDS011;40911;51.552;9.874;2022-09-23T00:32:29;3.40;;;3.10;;
13795;SDS011;40911;51.552;9.874;2022-09-23T00:37:14;3.65;;;3.13;;
13795;SDS011;40911;51.552;9.874;2022-09-23T00:41:57;3.42;;;3.20;;
13795;SDS011;40911;51.552;9.874;2022-09-23T00:46:59;5.32;;;3.17;;
13795;SDS011;40911;51.552;9.874;2022-09-23T00:49:22;4.38;;;3.13;;
13795;SDS011;40911;51.552;9.874;2022-09-23T00:51:51;3.85;;;3.17;;
13795;SDS011;40911;51.552;9.874;2022-09-23T00:54:18;4.00;;;2.92;;
13795;SDS011;40911;51.552;9.874;2022-09-23T00:56:41;3.30;;;3.10;;
13795;SDS011;40911;51.552;9.874;2022-09-23T00:59:03;3.60;;;3.22;;
13795;SDS011;40911;51.552;9.874;2022-09-23T01:01:26;3.53;;;3.20;;
13795;SDS011;40911;51.552;9.874;2022-09-23T01:03:48;3.85;;;3.50;;
13795;SDS011;40911;51.552;9.874;2022-09-23T01:06:11;6.25;;;3.50;;
13795;SDS011;40911;51.552;9.874;2022-09-23T01:08:35;3.80;;;3.40;;
13795;SDS011;40911;51.552;9.874;2022-09-23T01:10:58;3.40;;;3.10;;
13795;SDS011;40911;51.552;9.874;2022-09-23T01:13:29;5.32;;;3.30;;
13795;SDS011;40911;51.552;9.874;2022-09-23T01:15:57;4.22;;;3.47;;
13795;SDS011;40911;51.552;9.874;2022-09-23T01:18:26;3.95;;;3.25;;
13795;SDS011;40911;51.552;9.874;2022-09-23T01:20:56;3.88;;;3.58;;
13795;SDS011;40911;51.552;9.874;2022-09-23T01:23:42;4.00;;;3.55;;
13795;SDS011;40911;51.552;9.874;2022-09-23T01:32:38;3.97;;;3.50;;
13795;SDS011;40911;51.552;9.874;2022-09-23T01:35:11;5.15;;;3.38;;
13795;SDS011;40911;51.552;9.874;2022-09-23T01:37:45;5.00;;;3.42;;
13795;SDS011;40911;51.552;9.874;2022-09-23T01:40:14;4.70;;;3.55;;
13795;SDS011;40911;51.552;9.874;2022-09-23T01:42:40;3.97;;;3.58;;
13795;SDS011;40911;51.552;9.874;2022-09-23T01:45:04;3.65;;;3.35;;
13795;SDS011;40911;51.552;9.874;2022-09-23T01:47:32;3.70;;;3.40;;
13795;SDS011;40911;51.552;9.874;2022-09-23T01:49:59;5.47;;;3.60;;
13795;SDS011;40911;51.552;9.874;2022-09-23T01:52:44;4.40;;;3.35;;
13795;SDS011;40911;51.552;9.874;2022-09-23T01:55:09;3.60;;;3.30;;
13795;SDS011;40911;51.552;9.874;2022-09-23T01:57:36;3.45;;;3.15;;
13795;SDS011;40911;51.552;9.874;2022-09-23T02:00:03;4.15;;;3.50;;
13795;SDS011;40911;51.552;9.874;2022-09-23T02:02:30;4.15;;;3.72;;
13795;SDS011;40911;51.552;9.874;2022-09-23T02:04:56;4.75;;;3.30;;
13795;SDS011;40911;51.552;9.874;2022-09-23T02:07:23;3.50;;;3.30;;
13795;SDS011;40911;51.552;9.874;2022-09-23T02:09:51;5.10;;;3.72;;
13795;SDS011;40911;51.552;9.874;2022-09-23T02:12:17;4.07;;;3.58;;
13795;SDS011;40911;51.552;9.874;2022-09-23T02:14:45;3.85;;;3.55;;
13795;SDS011;40911;51.552;9.874;2022-09-23T02:17:11;3.92;;;3.60;;
13795;SDS011;40911;51.552;9.874;2022-09-23T02:19:39;3.97;;;3.58;;
13795;SDS011;40911;51.552;9.874;2022-09-23T02:22:07;4.25;;;3.92;;
13795;SDS011;40911;51.552;9.874;2022-09-23T02:24:35;4.07;;;3.58;;
13795;SDS011;40911;51.552;9.874;2022-09-23T02:27:03;4.35;;;3.78;;
13795;SDS011;40911;51.552;9.874;2022-09-23T02:29:32;4.35;;;3.97;;
13795;SDS011;40911;51.552;9.874;2022-09-23T02:32:03;6.82;;;3.92;;
13795;SDS011;40911;51.552;9.874;2022-09-23T02:34:37;4.40;;;4.00;;
13795;SDS011;40911;51.552;9.874;2022-09-23T02:37:08;4.13;;;3.70;;
13795;SDS011;40911;51.552;9.874;2022-09-23T02:39:37;5.45;;;3.90;;
13795;SDS011;40911;51.552;9.874;2022-09-23T02:42:08;4.60;;;4.00;;
13795;SDS011;40911;51.552;9.874;2022-09-23T02:44:34;4.38;;;3.70;;
13795;SDS011;40911;51.552;9.874;2022-09-23T02:46:56;3.58;;;3.15;;
13795;SDS011;40911;51.552;9.874;2022-09-23T02:51:41;3.60;;;3.30;;
13795;SDS011;40911;51.552;9.874;2022-09-23T02:54:05;3.63;;;3.30;;
13795;SDS011;40911;51.552;9.874;2022-09-23T02:56:29;5.28;;;3.83;;
13795;SDS011;40911;51.552;9.874;2022-09-23T02:58:51;4.15;;;3.85;;
13795;SDS011;40911;51.552;9.874;2022-09-23T03:01:17;4.20;;;3.67;;
13795;SDS011;40911;51.552;9.874;2022-09-23T03:03:53;7.28;;;3.70;;
13795;SDS011;40911;51.552;9.874;2022-09-23T03:06:26;4.15;;;3.80;;
13795;SDS011;40911;51.552;9.874;2022-09-23T03:08:52;4.03;;;3.63;;
13795;SDS011;40911;51.552;9.874;2022-09-23T03:11:19;4.65;;;3.75;;
13795;SDS011;40911;51.552;9.874;2022-09-23T03:13:46;3.95;;;3.65;;
13795;SDS011;40911;51.552;9.874;2022-09-23T03:16:17;4.57;;;3.72;;
13795;SDS011;40911;51.552;9.874;2022-09-23T03:18:48;4.28;;;3.88;;
13795;SDS011;40911;51.552;9.874;2022-09-23T03:21:18;4.38;;;3.97;;
13795;SDS011;40911;51.552;9.874;2022-09-23T03:23:45;4.95;;;4.05;;
13795;SDS011;40911;51.552;9.874;2022-09-23T03:26:09;4.18;;;3.65;;
13795;SDS011;40911;51.552;9.874;2022-09-23T03:28:36;6.05;;;3.60;;
13795;SDS011;40911;51.552;9.874;2022-09-23T03:31:02;4.50;;;3.70;;
13795;SDS011;40911;51.552;9.874;2022-09-23T03:33:25;4.00;;;3.60;;
13795;SDS011;40911;51.552;9.874;2022-09-23T03:35:50;5.72;;;3.70;;
13795;SDS011;40911;51.552;9.874;2022-09-23T03:38:31;4.70;;;3.55;;
13795;SDS011;40911;51.552;9.874;2022-09-23T03:40:57;6.47;;;3.83;;
13795;SDS011;40911;51.552;9.874;2022-09-23T03:43:20;4.03;;;3.60;;
13795;SDS011;40911;51.552;9.874;2022-09-23T03:45:44;5.05;;;4.22;;
13795;SDS011;40911;51.552;9.874;2022-09-23T03:48:06;3.67;;;3.38;;
13795;SDS011;40911;51.552;9.874;2022-09-23T03:50:29;4.82;;;4.15;;
13795;SDS011;40911;51.552;9.874;2022-09-23T03:52:51;4.47;;;4.07;;
13795;SDS011;40911;51.552;9.874;2022-09-23T03:55:13;4.97;;;3.90;;
13795;SDS011;40911;51.552;9.874;2022-09-23T03:57:36;3.83;;;3.53;;
13795;SDS011;40911;51.552;9.874;2022-09-23T03:59:58;3.92;;;3.53;;
13795;SDS011;40911;51.552;9.874;2022-09-23T04:02:21;4.10;;;3.80;;
13795;SDS011;40911;51.552;9.874;2022-09-23T04:04:42;4.43;;;4.03;;
13795;SDS011;40911;51.552;9.874;2022-09-23T04:07:04;3.90;;;3.60;;
13795;SDS011;40911;51.552;9.874;2022-09-23T04:09:26;4.40;;;3.80;;
13795;SDS011;40911;51.552;9.874;2022-09-23T04:11:48;5.07;;;4.10;;
13795;SDS011;40911;51.552;9.874;2022-09-23T04:14:10;4.00;;;3.70;;
13795;SDS011;40911;51.552;9.874;2022-09-23T04:16:32;4.28;;;3.88;;
13795;SDS011;40911;51.552;9.874;2022-09-23T04:21:17;6.00;;;4.25;;
13795;SDS011;40911;51.552;9.874;2022-09-23T04:23:39;4.60;;;4.00;;
13795;SDS011;40911;51.552;9.874;2022-09-23T04:26:00;4.75;;;4.28;;
13795;SDS011;40911;51.552;9.874;2022-09-23T04:28:24;5.40;;;4.10;;
13795;SDS011;40911;51.552;9.874;2022-09-23T04:30:45;4.72;;;4.10;;
13795;SDS011;40911;51.552;9.874;2022-09-23T04:33:08;8.50;;;5.78;;
13795;SDS011;40911;51.552;9.874;2022-09-23T04:35:32;14.57;;;10.13;;
13795;SDS011;40911;51.552;9.874;2022-09-23T04:37:53;34.00;;;19.90;;
13795;SDS011;40911;51.552;9.874;2022-09-23T04:40:15;21.15;;;13.55;;
13795;SDS011;40911;51.552;9.874;2022-09-23T04:42:38;15.90;;;9.60;;
13795;SDS011;40911;51.552;9.874;2022-09-23T04:45:00;10.05;;;6.53;;
13795;SDS011;40911;51.552;9.874;2022-09-23T04:47:23;5.38;;;4.88;;
13795;SDS011;40911;51.552;9.874;2022-09-23T04:49:45;5.75;;;5.20;;
13795;SDS011;40911;51.552;9.874;2022-09-23T04:52:08;5.63;;;4.70;;
13795;SDS011;40911;51.552;9.874;2022-09-23T04:54:29;5.88;;;4.70;;
13795;SDS011;40911;51.552;9.874;2022-09-23T04:56:51;6.53;;;5.00;;
13795;SDS011;40911;51.552;9.874;2022-09-23T04:59:13;7.32;;;4.70;;
13795;SDS011;40911;51.552;9.874;2022-09-23T05:01:35;5.20;;;4.70;;
13795;SDS011;40911;51.552;9.874;2022-09-23T05:03:58;7.50;;;5.20;;
13795;SDS011;40911;51.552;9.874;2022-09-23T05:06:23;9.07;;;5.15;;
13795;SDS011;40911;51.552;9.874;2022-09-23T05:08:47;5.30;;;4.80;;
13795;SDS011;40911;51.552;9.874;2022-09-23T05:11:10;5.55;;;5.03;;
13795;SDS011;40911;51.552;9.874;2022-09-23T05:13:31;6.20;;;4.63;;
13795;SDS011;40911;51.552;9.874;2022-09-23T05:15:57;6.03;;;4.97;;
13795;SDS011;40911;51.552;9.874;2022-09-23T05:18:20;15.73;;;7.50;;
13795;SDS011;40911;51.552;9.874;2022-09-23T05:20:41;13.40;;;7.38;;
13795;SDS011;40911;51.552;9.874;2022-09-23T05:23:03;8.77;;;6.32;;
13795;SDS011;40911;51.552;9.874;2022-09-23T05:25:26;17.00;;;8.27;;
13795;SDS011;40911;51.552;9.874;2022-09-23T05:27:48;11.30;;;6.93;;
13795;SDS011;40911;51.552;9.874;2022-09-23T05:30:10;17.75;;;8.35;;
13795;SDS011;40911;51.552;9.874;2022-09-23T05:32:32;12.60;;;7.30;;
13795;SDS011;40911;51.552;9.874;2022-09-23T05:34:53;9.43;;;6.57;;
13795;SDS011;40911;51.552;9.874;2022-09-23T05:37:15;6.57;;;5.93;;
13795;SDS011;40911;51.552;9.874;2022-09-23T05:39:37;9.85;;;5.80;;
13795;SDS011;40911;51.552;9.874;2022-09-23T05:42:00;7.32;;;5.68;;
13795;SDS011;40911;51.552;9.874;2022-09-23T05:44:21;7.90;;;5.90;;
13795;SDS011;40911;51.552;9.874;2022-09-23T05:46:43;7.20;;;5.18;;
13795;SDS011;40911;51.552;9.874;2022-09-23T05:51:27;6.35;;;4.95;;
13795;SDS011;40911;51.552;9.874;2022-09-23T05:56:11;7.75;;;5.72;;
13795;SDS011;40911;51.552;9.874;2022-09-23T05:58:35;7.55;;;5.93;;
13795;SDS011;40911;51.552;9.874;2022-09-23T06:00:57;8.02;;;5.78;;
13795;SDS011;40911;51.552;9.874;2022-09-23T06:05:40;7.00;;;6.18;;
13795;SDS011;40911;51.552;9.874;2022-09-23T06:08:03;9.35;;;7.20;;
13795;SDS011;40911;51.552;9.874;2022-09-23T06:10:24;6.80;;;6.10;;
13795;SDS011;40911;51.552;9.874;2022-09-23T06:12:47;6.32;;;5.75;;
13795;SDS011;40911;51.552;9.874;2022-09-23T06:15:10;8.45;;;6.15;;
13795;SDS011;40911;51.552;9.874;2022-09-23T06:17:32;11.05;;;6.88;;
13795;SDS011;40911;51.552;9.874;2022-09-23T06:19:53;7.40;;;6.32;;
13795;SDS011;40911;51.552;9.874;2022-09-23T06:22:15;6.10;;;5.50;;
13795;SDS011;40911;51.552;9.874;2022-09-23T06:24:37;6.38;;;5.22;;
13795;SDS011;40911;51.552;9.874;2022-09-23T06:26:59;9.32;;;6.22;;
13795;SDS011;40911;51.552;9.874;2022-09-23T06:29:21;7.70;;;5.97;;
13795;SDS011;40911;51.552;9.874;2022-09-23T06:34:09;5.90;;;5.32;;
13795;SDS011;40911;51.552;9.874;2022-09-23T06:36:31;5.38;;;4.88;;
13795;SDS011;40911;51.552;9.874;2022-09-23T06:38:53;5.10;;;4.60;;
13795;SDS011;40911;51.552;9.874;2022-09-23T06:41:15;4.88;;;4.38;;
13795;SDS011;40911;51.552;9.874;2022-09-23T06:43:39;5.47;;;4.40;;
13795;SDS011;40911;51.552;9.874;2022-09-23T06:46:02;5.05;;;4.40;;
13795;SDS011;40911;51.552;9.874;2022-09-23T06:48:27;8.48;;;4.13;;
13795;SDS011;40911;51.552;9.874;2022-09-23T06:50:49;4.88;;;4.38;;
13795;SDS011;40911;51.552;9.874;2022-09-23T06:53:12;5.95;;;4.13;;
13795;SDS011;40911;51.552;9.874;2022-09-23T06:55:34;5.07;;;4.63;;
13795;SDS011;40911;51.552;9.874;2022-09-23T06:57:56;6.22;;;4.90;;
13795;SDS011;40911;51.552;9.874;2022-09-23T07:00:18;9.13;;;5.20;;
13795;SDS011;40911;51.552;9.874;2022-09-23T07:02:40;16.85;;;5.07;;
13795;SDS011;40911;51.552;9.874;2022-09-23T07:05:04;9.40;;;4.70;;
13795;SDS011;40911;51.552;9.874;2022-09-23T07:07:28;5.35;;;4.25;;
13795;SDS011;40911;51.552;9.874;2022-09-23T07:09:50;10.73;;;4.43;;
13795;SDS011;40911;51.552;9.874;2022-09-23T07:14:34;6.68;;;4.13;;
13795;SDS011;40911;51.552;9.874;2022-09-23T07:16:55;5.90;;;4.30;;
13795;SDS011;40911;51.552;9.874;2022-09-23T07:19:19;6.85;;;4.22;;
13795;SDS011;40911;51.552;9.874;2022-09-23T07:21:42;6.55;;;3.97;;
13795;SDS011;40911;51.552;9.874;2022-09-23T07:24:03;4.90;;;3.70;;
13795;SDS011;40911;51.552;9.874;2022-09-23T07:26:26;6.13;;;3.70;;
13795;SDS011;40911;51.552;9.874;2022-09-23T07:28:51;6.75;;;4.00;;
13795;SDS011;40911;51.552;9.874;2022-09-23T07:31:15;4.40;;;3.88;;
13795;SDS011;40911;51.552;9.874;2022-09-23T07:33:38;7.15;;;4.00;;
13795;SDS011;40911;51.552;9.874;2022-09-23T07:36:03;4.93;;;3.85;;
13795;SDS011;40911;51.552;9.874;2022-09-23T07:38:27;6.15;;;4.03;;
13795;SDS011;40911;51.552;9.874;2022-09-23T07:40:50;7.60;;;3.72;;
13795;SDS011;40911;51.552;9.874;2022-09-23T07:43:12;3.90;;;3.60;;
13795;SDS011;40911;51.552;9.874;2022-09-23T07:45:33;5.38;;;3.58;;
13795;SDS011;40911;51.552;9.874;2022-09-23T07:47:56;6.38;;;4.00;;
13795;SDS011;40911;51.552;9.874;2022-09-23T07:50:17;4.57;;;3.90;;
13795;SDS011;40911;51.552;9.874;2022-09-23T07:52:39;4.95;;;3.60;;
13795;SDS011;40911;51.552;9.874;2022-09-23T07:55:03;4.82;;;3.63;;
13795;SDS011;40911;51.552;9.874;2022-09-23T07:57:26;7.25;;;3.47;;
13795;SDS011;40911;51.552;9.874;2022-09-23T07:59:48;4.20;;;3.38;;
13795;SDS011;40911;51.552;9.874;2022-09-23T08:02:09;4.30;;;2.95;;
13795;SDS011;40911;51.552;9.874;2022-09-23T08:04:33;2.97;;;2.78;;
13795;SDS011;40911;51.552;9.874;2022-09-23T08:06:56;3.90;;;2.78;;
13795;SDS011;40911;51.552;9.874;2022-09-23T08:09:19;4.82;;;3.10;;
13795;SDS011;40911;51.552;9.874;2022-09-23T08:11:44;5.53;;;3.03;;
13795;SDS011;40911;51.552;9.874;2022-09-23T08:14:06;4.15;;;2.60;;
13795;SDS011;40911;51.552;9.874;2022-09-23T08:18:49;3.75;;;2.90;;
13795;SDS011;40911;51.552;9.874;2022-09-23T08:21:11;3.65;;;2.78;;
13795;SDS011;40911;51.552;9.874;2022-09-23T08:23:38;3.05;;;2.70;;
13795;SDS011;40911;51.552;9.874;2022-09-23T08:26:00;5.50;;;2.90;;
13795;SDS011;40911;51.552;9.874;2022-09-23T08:28:25;2.85;;;2.65;;
13795;SDS011;40911;51.552;9.874;2022-09-23T08:30:48;3.63;;;2.70;;
13795;SDS011;40911;51.552;9.874;2022-09-23T08:33:09;2.92;;;2.63;;
13795;SDS011;40911;51.552;9.874;2022-09-23T08:35:31;5.30;;;2.70;;
13795;SDS011;40911;51.552;9.874;2022-09-23T08:37:53;2.70;;;2.22;;
13795;SDS011;40911;51.552;9.874;2022-09-23T08:40:15;3.10;;;2.80;;
13795;SDS011;40911;51.552;9.874;2022-09-23T08:42:40;4.93;;;2.88;;
13795;SDS011;40911;51.552;9.874;2022-09-23T08:45:06;4.95;;;2.63;;
13795;SDS011;40911;51.552;9.874;2022-09-23T08:47:38;3.33;;;2.50;;
13795;SDS011;40911;51.552;9.874;2022-09-23T08:50:06;3.75;;;2.65;;
13795;SDS011;40911;51.552;9.874;2022-09-23T08:52:33;2.75;;;2.50;;
13795;SDS011;40911;51.552;9.874;2022-09-23T08:55:00;4.43;;;2.55;;
13795;SDS011;40911;51.552;9.874;2022-09-23T08:57:26;3.13;;;2.33;;
13795;SDS011;40911;51.552;9.874;2022-09-23T08:59:55;3.35;;;2.60;;
13795;SDS011;40911;51.552;9.874;2022-09-23T09:02:19;2.65;;;2.30;;
13795;SDS011;40911;51.552;9.874;2022-09-23T09:04:42;3.95;;;2.22;;
13795;SDS011;40911;51.552;9.874;2022-09-23T09:07:09;3.83;;;2.35;;
13795;SDS011;40911;51.552;9.874;2022-09-23T09:09:35;3.90;;;2.60;;
13795;SDS011;40911;51.552;9.874;2022-09-23T09:12:02;3.70;;;2.30;;
13795;SDS011;40911;51.552;9.874;2022-09-23T09:14:28;3.80;;;2.08;;
13795;SDS011;40911;51.552;9.874;2022-09-23T09:16:57;3.05;;;1.95;;
13795;SDS011;40911;51.552;9.874;2022-09-23T09:19:27;3.33;;;2.20;;
13795;SDS011;40911;51.552;9.874;2022-09-23T09:22:00;3.53;;;2.30;;
13795;SDS011;40911;51.552;9.874;2022-09-23T09:24:29;2.60;;;2.40;;
13795;SDS011;40911;51.552;9.874;2022-09-23T09:26:54;6.05;;;2.42;;
13795;SDS011;40911;51.552;9.874;2022-09-23T09:29:17;3.30;;;2.25;;
13795;SDS011;40911;51.552;9.874;2022-09-23T09:31:43;3.53;;;2.20;;
13795;SDS011;40911;51.552;9.874;2022-09-23T09:34:09;2.15;;;1.95;;
13795;SDS011;40911;51.552;9.874;2022-09-23T09:36:36;4.75;;;2.20;;
13795;SDS011;40911;51.552;9.874;2022-09-23T09:39:04;4.57;;;2.20;;
13795;SDS011;40911;51.552;9.874;2022-09-23T09:41:28;2.50;;;2.30;;
13795;SDS011;40911;51.552;9.874;2022-09-23T09:43:50;3.60;;;2.13;;
13795;SDS011;40911;51.552;9.874;2022-09-23T09:46:22;4.15;;;2.22;;
13795;SDS011;40911;51.552;9.874;2022-09-23T09:48:57;2.50;;;1.90;;
13795;SDS011;40911;51.552;9.874;2022-09-23T09:51:23;2.45;;;2.08;;
13795;SDS011;40911;51.552;9.874;2022-09-23T09:53:48;2.90;;;2.10;;
13795;SDS011;40911;51.552;9.874;2022-09-23T09:56:11;4.75;;;2.22;;
13795;SDS011;40911;51.552;9.874;2022-09-23T09:58:38;2.97;;;2.00;;
13795;SDS011;40911;51.552;9.874;2022-09-23T10:01:05;3.72;;;2.22;;
13795;SDS011;40911;51.552;9.874;2022-09-23T10:03:32;2.65;;;2.13;;
13795;SDS011;40911;51.552;9.874;2022-09-23T10:05:57;2.97;;;1.85;;
13795;SDS011;40911;51.552;9.874;2022-09-23T10:08:21;3.00;;;1.85;;
13795;SDS011;40911;51.552;9.874;2022-09-23T10:10:50;2.00;;;1.70;;
13795;SDS011;40911;51.552;9.874;2022-09-23T10:13:14;5.22;;;2.00;;
13795;SDS011;40911;51.552;9.874;2022-09-23T10:15:39;2.85;;;1.95;;
13795;SDS011;40911;51.552;9.874;2022-09-23T10:18:02;2.38;;;1.70;;
13795;SDS011;40911;51.552;9.874;2022-09-23T10:20:32;2.45;;;1.80;;
13795;SDS011;40911;51.552;9.874;2022-09-23T10:22:58;4.70;;;1.70;;
13795;SDS011;40911;51.552;9.874;2022-09-23T10:25:26;3.33;;;1.80;;
13795;SDS011;40911;51.552;9.874;2022-09-23T10:30:18;2.40;;;1.70;;
13795;SDS011;40911;51.552;9.874;2022-09-23T10:32:42;1.90;;;1.70;;
13795;SDS011;40911;51.552;9.874;2022-09-23T10:35:11;3.10;;;1.85;;
13795;SDS011;40911;51.552;9.874;2022-09-23T10:37:35;1.80;;;1.60;;
13795;SDS011;40911;51.552;9.874;2022-09-23T10:39:59;3.78;;;1.80;;
13795;SDS011;40911;51.552;9.874;2022-09-23T10:42:43;3.55;;;1.98;;
13795;SDS011;40911;51.552;9.874;2022-09-23T10:45:37;1.70;;;1.58;;
13795;SDS011;40911;51.552;9.874;2022-09-23T10:48:19;2.88;;;1.70;;
13795;SDS011;40911;51.552;9.874;2022-09-23T10:50:51;2.92;;;1.60;;
13795;SDS011;40911;51.552;9.874;2022-09-23T10:53:17;2.10;;;1.60;;
13795;SDS011;40911;51.552;9.874;2022-09-23T10:56:00;3.78;;;1.65;;
13795;SDS011;40911;51.552;9.874;2022-09-23T10:58:51;2.38;;;1.52;;
13795;SDS011;40911;51.552;9.874;2022-09-23T11:01:34;3.72;;;2.15;;
13795;SDS011;40911;51.552;9.874;2022-09-23T11:04:07;1.95;;;1.67;;
13795;SDS011;40911;51.552;9.874;2022-09-23T11:06:41;1.80;;;1.70;;
13795;SDS011;40911;51.552;9.874;2022-09-23T11:09:15;1.60;;;1.50;;
13795;SDS011;40911;51.552;9.874;2022-09-23T11:11:50;1.35;;;1.25;;
13795;SDS011;40911;51.552;9.874;2022-09-23T11:14:28;2.63;;;1.88;;
13795;SDS011;40911;51.552;9.874;2022-09-23T11:17:10;3.03;;;1.90;;
13795;SDS011;40911;51.552;9.874;2022-09-23T11:19:57;1.85;;;1.38;;
13795;SDS011;40911;51.552;9.874;2022-09-23T11:22:43;1.65;;;1.42;;
13795;SDS011;40911;51.552;9.874;2022-09-23T11:25:17;1.98;;;1.30;;
13795;SDS011;40911;51.552;9.874;2022-09-23T11:28:01;3.28;;;1.48;;
13795;SDS011;40911;51.552;9.874;2022-09-23T11:30:40;1.30;;;1.20;;
13795;SDS011;40911;51.552;9.874;2022-09-23T11:36:07;1.80;;;1.60;;
13795;SDS011;40911;51.552;9.874;2022-09-23T11:38:34;2.17;;;1.67;;
13795;SDS011;40911;51.552;9.874;2022-09-23T11:41:00;2.33;;;1.50;;
13795;SDS011;40911;51.552;9.874;2022-09-23T11:43:28;4.15;;;1.70;;
13795;SDS011;40911;51.552;9.874;2022-09-23T11:46:00;2.55;;;1.98;;
13795;SDS011;40911;51.552;9.874;2022-09-23T11:48:29;1.63;;;1.52;;
13795;SDS011;40911;51.552;9.874;2022-09-23T11:50:56;1.73;;;1.50;;
13795;SDS011;40911;51.552;9.874;2022-09-23T11:53:21;4.45;;;1.70;;
13795;SDS011;40911;51.552;9.874;2022-09-23T11:55:48;1.92;;;1.40;;
13795;SDS011;40911;51.552;9.874;2022-09-23T11:58:14;2.05;;;1.45;;
13795;SDS011;40911;51.552;9.874;2022-09-23T12:00:41;2.67;;;1.50;;
13795;SDS011;40911;51.552;9.874;2022-09-23T12:03:11;3.20;;;1.38;;
13795;SDS011;40911;51.552;9.874;2022-09-23T12:05:40;1.30;;;1.20;;
13795;SDS011;40911;51.552;9.874;2022-09-23T12:08:09;3.13;;;1.30;;
13795;SDS011;40911;51.552;9.874;2022-09-23T12:10:40;2.53;;;1.52;;
13795;SDS011;40911;51.552;9.874;2022-09-23T12:13:09;3.08;;;1.50;;
13795;SDS011;40911;51.552;9.874;2022-09-23T12:15:42;1.70;;;1.60;;
13795;SDS011;40911;51.552;9.874;2022-09-23T12:18:22;3.67;;;1.30;;
13795;SDS011;40911;51.552;9.874;2022-09-23T12:21:06;1.63;;;1.35;;
13795;SDS011;40911;51.552;9.874;2022-09-23T12:23:51;1.83;;;1.73;;
13795;SDS011;40911;51.552;9.874;2022-09-23T12:26:22;2.88;;;1.60;;
13795;SDS011;40911;51.552;9.874;2022-09-23T12:28:46;3.25;;;1.55;;
13795;SDS011;40911;51.552;9.874;2022-09-23T12:31:10;2.00;;;1.15;;
13795;SDS011;40911;51.552;9.874;2022-09-23T12:33:35;1.90;;;1.13;;
13795;SDS011;40911;51.552;9.874;2022-09-23T12:36:01;3.65;;;1.40;;
13795;SDS011;40911;51.552;9.874;2022-09-23T12:38:24;4.20;;;1.30;;
13795;SDS011;40911;51.552;9.874;2022-09-23T12:40:51;1.90;;;1.50;;
13795;SDS011;40911;51.552;9.874;2022-09-23T12:43:15;1.30;;;1.20;;
13795;SDS011;40911;51.552;9.874;2022-09-23T12:45:38;3.08;;;1.45;;
13795;SDS011;40911;51.552;9.874;2022-09-23T12:48:01;3.03;;;1.33;;
13795;SDS011;40911;51.552;9.874;2022-09-23T12:56:20;1.60;;;1.45;;
13795;SDS011;40911;51.552;9.874;2022-09-23T12:58:56;2.22;;;1.38;;
13795;SDS011;40911;51.552;9.874;2022-09-23T13:01:23;1.50;;;1.40;;
13795;SDS011;40911;51.552;9.874;2022-09-23T13:03:46;2.65;;;1.40;;
13795;SDS011;40911;51.552;9.874;2022-09-23T13:06:37;1.80;;;1.70;;
13795;SDS011;40911;51.552;9.874;2022-09-23T13:09:00;2.53;;;1.55;;
13795;SDS011;40911;51.552;9.874;2022-09-23T13:11:24;3.67;;;1.73;;
13795;SDS011;40911;51.552;9.874;2022-09-23T13:13:48;2.72;;;1.40;;
13795;SDS011;40911;51.552;9.874;2022-09-23T13:16:11;4.30;;;1.40;;
13795;SDS011;40911;51.552;9.874;2022-09-23T13:24:33;2.60;;;2.00;;
13795;SDS011;40911;51.552;9.874;2022-09-23T13:27:02;2.55;;;1.80;;
13795;SDS011;40911;51.552;9.874;2022-09-23T13:29:26;2.45;;;1.98;;
13795;SDS011;40911;51.552;9.874;2022-09-23T13:31:52;2.78;;;1.40;;
13795;SDS011;40911;51.552;9.874;2022-09-23T13:34:17;4.20;;;3.90;;
13795;SDS011;40911;51.552;9.874;2022-09-23T13:36:43;5.47;;;3.30;;
13795;SDS011;40911;51.552;9.874;2022-09-23T13:39:13;2.05;;;1.60;;
13795;SDS011;40911;51.552;9.874;2022-09-23T13:41:36;1.50;;;1.40;;
13795;SDS011;40911;51.552;9.874;2022-09-23T13:43:58;3.75;;;1.38;;
13795;SDS011;40911;51.552;9.874;2022-09-23T13:46:20;1.75;;;1.65;;
13795;SDS011;40911;51.552;9.874;2022-09-23T13:48:46;1.95;;;1.40;;
13795;SDS011;40911;51.552;9.874;2022-09-23T13:51:10;2.15;;;1.65;;
13795;SDS011;40911;51.552;9.874;2022-09-23T13:53:38;1.80;;;1.60;;
13795;SDS011;40911;51.552;9.874;2022-09-23T13:58:26;3.00;;;2.58;;
13795;SDS011;40911;51.552;9.874;2022-09-23T14:00:49;4.30;;;1.70;;
13795;SDS011;40911;51.552;9.874;2022-09-23T14:03:21;3.13;;;1.83;;
13795;SDS011;40911;51.552;9.874;2022-09-23T14:05:44;2.83;;;1.70;;
13795;SDS011;40911;51.552;9.874;2022-09-23T14:08:06;2.15;;;1.48;;
13795;SDS011;40911;51.552;9.874;2022-09-23T14:10:29;3.67;;;1.90;;
13795;SDS011;40911;51.552;9.874;2022-09-23T14:12:52;1.63;;;1.52;;
13795;SDS011;40911;51.552;9.874;2022-09-23T14:15:17;2.60;;;1.58;;
13795;SDS011;40911;51.552;9.874;2022-09-23T14:17:43;3.70;;;1.42;;
13795;SDS011;40911;51.552;9.874;2022-09-23T14:20:11;1.50;;;1.40;;
13795;SDS011;40911;51.552;9.874;2022-09-23T14:22:36;1.58;;;1.48;;
13795;SDS011;40911;51.552;9.874;2022-09-23T14:27:21;2.28;;;1.67;;
13795;SDS011;40911;51.552;9.874;2022-09-23T14:29:48;3.40;;;1.60;;
13795;SDS011;40911;51.552;9.874;2022-09-23T14:32:11;1.63;;;1.50;;
13795;SDS011;40911;51.552;9.874;2022-09-23T14:34:42;2.60;;;2.17;;
13795;SDS011;40911;51.552;9.874;2022-09-23T14:37:09;1.95;;;1.63;;
13795;SDS011;40911;51.552;9.874;2022-09-23T14:39:56;41.13;;;19.73;;
13795;SDS011;40911;51.552;9.874;2022-09-23T14:42:18;14.63;;;8.05;;
13795;SDS011;40911;51.552;9.874;2022-09-23T14:44:40;2.72;;;1.90;;
13795;SDS011;40911;51.552;9.874;2022-09-23T14:49:25;2.22;;;2.00;;
13795;SDS011;40911;51.552;9.874;2022-09-23T14:51:48;4.25;;;1.98;;
13795;SDS011;40911;51.552;9.874;2022-09-23T14:56:56;1.80;;;1.70;;
13795;SDS011;40911;51.552;9.874;2022-09-23T14:59:25;2.45;;;1.90;;
13795;SDS011;40911;51.552;9.874;2022-09-23T15:01:47;2.33;;;2.10;;
13795;SDS011;40911;51.552;9.874;2022-09-23T15:06:34;2.33;;;1.70;;
13795;SDS011;40911;51.552;9.874;2022-09-23T15:08:57;2.97;;;1.70;;
13795;SDS011;40911;51.552;9.874;2022-09-23T15:11:20;2.15;;;1.60;;
13795;SDS011;40911;51.552;9.874;2022-09-23T15:13:42;2.65;;;1.48;;
13795;SDS011;40911;51.552;9.874;2022-09-23T15:16:08;2.17;;;2.00;;
13795;SDS011;40911;51.552;9.874;2022-09-23T15:18:33;2.72;;;1.90;;
13795;SDS011;40911;51.552;9.874;2022-09-23T15:20:58;4.10;;;1.90;;
13795;SDS011;40911;51.552;9.874;2022-09-23T15:23:32;2.85;;;1.60;;
13795;SDS011;40911;51.552;9.874;2022-09-23T15:25:55;3.05;;;1.50;;
13795;SDS011;40911;51.552;9.874;2022-09-23T15:28:17;3.05;;;1.60;;
13795;SDS011;40911;51.552;9.874;2022-09-23T15:30:42;2.35;;;1.50;;
13795;SDS011;40911;51.552;9.874;2022-09-23T15:33:04;2.65;;;1.60;;
13795;SDS011;40911;51.552;9.874;2022-09-23T15:35:28;2.72;;;1.60;;
13795;SDS011;40911;51.552;9.874;2022-09-23T15:37:52;1.75;;;1.65;;
13795;SDS011;40911;51.552;9.874;2022-09-23T15:40:18;2.05;;;1.70;;
13795;SDS011;40911;51.552;9.874;2022-09-23T15:42:42;2.22;;;2.00;;
13795;SDS011;40911;51.552;9.874;2022-09-23T15:45:10;2.92;;;1.60;;